Hartford, Connecticut
Traffic Map
Current Weather Conditions
Hartford, Connecticut
Clear
Clear
62°
Feels Like: 62°
Wind Chill: 62° Ceiling: Unl
Heat Index: 62° Visibility: 10mi
Dew Point: 41° Wind: 7mph
Humidity: 46% Direction: 190° (S)
Pressure: 30.33in Gusts: 0mph
Raw Report DataKHFD 241253Z 19006KT 10SM CLR 17/05 A3033 RMK AO2 SLP270 T01670050
Traffic Incident Summary
Active as of:
Severity:
Category:
InformationThere was an issue retrieving the traffic information for this location. Please try a different location or try again shortly.
Advertisements
Track Severe Weather on mobile